This is the latest recevied weather packets stored in our database for station/object JA3QOS-13. If no packets are shown the sender has not sent any weather packets the latest 10 day(s).
| Time | Temp. | Humidity | Pressure | Rain* | Wind** | Luminosity | Snow |
|---|---|---|---|---|---|---|---|
| 1788071404 | 30° C | 78% | 1010.3 hPa | 0 mm | - | - | - |
| 1788069604 | 30.56° C | 80% | 1010.4 hPa | 0 mm | - | - | - |
| 1788067804 | 30.56° C | 80% | 1010.6 hPa | 0 mm | - | - | - |
| 1788066004 | 31.67° C | 77% | 1010.8 hPa | 0 mm | - | - | - |
| 1788064203 | 30° C | 81% | 1011 hPa | 0 mm | - | - | - |
| 1788062403 | 29.44° C | 80% | 1011.2 hPa | 0 mm | - | - | - |
| 1788060604 | 29.44° C | 81% | 1011.4 hPa | 0 mm | - | - | - |
| 1788058804 | 29.44° C | 81% | 1011.5 hPa | 0 mm | - | - | - |
| 1788057004 | 27.22° C | 87% | 1011.9 hPa | 0 mm | - | - | - |
| 1788055204 | 27.78° C | 86% | 1012 hPa | 0 mm | - | - | - |
| 1788053403 | 27.78° C | 90% | 1011.9 hPa | 0 mm | - | - | - |
| 1788051603 | 26.67° C | 92% | 1012 hPa | 0 mm | - | - | - |
| 1788049803 | 26.11° C | 97% | 1012.1 hPa | 0 mm | - | - | - |
| 1788048006 | 25° C | 99% | 1012 hPa | 0 mm | - | - | - |
| 1788046203 | 24.44° C | 99% | 1011.7 hPa | 0 mm | - | - | - |
| 1788044404 | 23.89° C | 99% | 1011.7 hPa | 0 mm | - | - | - |
| 1788042604 | 23.33° C | 99% | 1011.7 hPa | 0 mm | - | - | - |
| 1788040804 | 23.33° C | 99% | 1011.4 hPa | 0 mm | - | - | - |
| 1788039004 | 23.33° C | 99% | 1011.3 hPa | 0 mm | - | - | - |
| 1788037204 | 23.33° C | 99% | 1011 hPa | 0 mm | - | - | - |
| 1788035403 | 23.33° C | 99% | 1011 hPa | 0 mm | - | - | - |
| 1788033603 | 23.33° C | 99% | 1010.7 hPa | 0 mm | - | - | - |
| 1788031804 | 22.78° C | 99% | 1010.5 hPa | 0 mm | - | - | - |
| 1788030004 | 22.78° C | 99% | 1010.9 hPa | 0 mm | - | - | - |
| 1788028203 | 22.78° C | 99% | 1010.4 hPa | 0 mm | - | - | - |
* Rain latest hour (hover to see other rain measurements)
** Current wind speed in m/s (hover to see current wind gust speed)